sensor_id;sensor_type;location;lat;lon;timestamp;P1;durP1;ratioP1;P2;durP2;ratioP2
64903;SDS011;51401;48.882;12.598;2022-08-14T00:01:06;10.63;;;8.00;;
64903;SDS011;51401;48.882;12.598;2022-08-14T00:03:31;9.02;;;7.65;;
64903;SDS011;51401;48.882;12.598;2022-08-14T00:05:58;7.82;;;7.03;;
64903;SDS011;51401;48.882;12.598;2022-08-14T00:08:25;9.77;;;7.63;;
64903;SDS011;51401;48.882;12.598;2022-08-14T00:10:50;11.63;;;8.45;;
64903;SDS011;51401;48.882;12.598;2022-08-14T00:13:17;8.52;;;7.47;;
64903;SDS011;51401;48.882;12.598;2022-08-14T00:15:44;9.43;;;7.15;;
64903;SDS011;51401;48.882;12.598;2022-08-14T00:18:12;9.43;;;7.63;;
64903;SDS011;51401;48.882;12.598;2022-08-14T00:20:39;8.82;;;7.28;;
64903;SDS011;51401;48.882;12.598;2022-08-14T00:23:06;8.38;;;7.57;;
64903;SDS011;51401;48.882;12.598;2022-08-14T00:25:33;10.43;;;8.15;;
64903;SDS011;51401;48.882;12.598;2022-08-14T00:27:59;9.93;;;8.20;;
64903;SDS011;51401;48.882;12.598;2022-08-14T00:30:25;9.00;;;8.07;;
64903;SDS011;51401;48.882;12.598;2022-08-14T00:32:51;8.48;;;7.50;;
64903;SDS011;51401;48.882;12.598;2022-08-14T00:35:16;10.70;;;8.07;;
64903;SDS011;51401;48.882;12.598;2022-08-14T00:37:43;10.57;;;8.02;;
64903;SDS011;51401;48.882;12.598;2022-08-14T00:40:10;10.57;;;8.13;;
64903;SDS011;51401;48.882;12.598;2022-08-14T00:42:38;10.43;;;8.48;;
64903;SDS011;51401;48.882;12.598;2022-08-14T00:45:04;10.77;;;8.70;;
64903;SDS011;51401;48.882;12.598;2022-08-14T00:47:31;9.23;;;7.72;;
64903;SDS011;51401;48.882;12.598;2022-08-14T00:49:59;9.05;;;7.30;;
64903;SDS011;51401;48.882;12.598;2022-08-14T00:52:26;8.48;;;7.40;;
64903;SDS011;51401;48.882;12.598;2022-08-14T00:54:53;8.80;;;7.72;;
64903;SDS011;51401;48.882;12.598;2022-08-14T00:57:23;8.77;;;7.50;;
64903;SDS011;51401;48.882;12.598;2022-08-14T00:59:54;9.00;;;7.90;;
64903;SDS011;51401;48.882;12.598;2022-08-14T01:02:21;8.70;;;7.82;;
64903;SDS011;51401;48.882;12.598;2022-08-14T01:04:48;8.02;;;7.22;;
64903;SDS011;51401;48.882;12.598;2022-08-14T01:07:16;9.23;;;7.50;;
64903;SDS011;51401;48.882;12.598;2022-08-14T01:09:45;9.82;;;7.72;;
64903;SDS011;51401;48.882;12.598;2022-08-14T01:12:12;8.60;;;7.63;;
64903;SDS011;51401;48.882;12.598;2022-08-14T01:14:40;8.98;;;8.07;;
64903;SDS011;51401;48.882;12.598;2022-08-14T01:17:05;11.27;;;8.00;;
64903;SDS011;51401;48.882;12.598;2022-08-14T01:19:30;8.50;;;7.60;;
64903;SDS011;51401;48.882;12.598;2022-08-14T01:22:15;10.90;;;8.95;;
64903;SDS011;51401;48.882;12.598;2022-08-14T01:24:42;8.68;;;7.65;;
64903;SDS011;51401;48.882;12.598;2022-08-14T01:27:12;9.02;;;7.53;;
64903;SDS011;51401;48.882;12.598;2022-08-14T01:29:47;9.15;;;8.10;;
64903;SDS011;51401;48.882;12.598;2022-08-14T01:32:14;8.60;;;7.63;;
64903;SDS011;51401;48.882;12.598;2022-08-14T01:34:42;10.77;;;8.98;;
64903;SDS011;51401;48.882;12.598;2022-08-14T01:37:08;10.73;;;8.82;;
64903;SDS011;51401;48.882;12.598;2022-08-14T01:39:34;8.90;;;7.63;;
64903;SDS011;51401;48.882;12.598;2022-08-14T01:42:00;8.88;;;7.55;;
64903;SDS011;51401;48.882;12.598;2022-08-14T01:44:27;9.70;;;8.18;;
64903;SDS011;51401;48.882;12.598;2022-08-14T01:46:55;9.43;;;7.43;;
64903;SDS011;51401;48.882;12.598;2022-08-14T01:49:22;8.25;;;7.40;;
64903;SDS011;51401;48.882;12.598;2022-08-14T01:51:48;9.10;;;7.72;;
64903;SDS011;51401;48.882;12.598;2022-08-14T01:54:18;8.88;;;7.97;;
64903;SDS011;51401;48.882;12.598;2022-08-14T01:56:49;8.65;;;7.63;;
64903;SDS011;51401;48.882;12.598;2022-08-14T02:01:41;9.23;;;7.43;;
64903;SDS011;51401;48.882;12.598;2022-08-14T02:04:07;8.38;;;7.43;;
64903;SDS011;51401;48.882;12.598;2022-08-14T02:06:33;8.98;;;7.38;;
64903;SDS011;51401;48.882;12.598;2022-08-14T02:09:02;8.25;;;7.45;;
64903;SDS011;51401;48.882;12.598;2022-08-14T02:11:32;8.30;;;7.38;;
64903;SDS011;51401;48.882;12.598;2022-08-14T02:14:00;8.90;;;7.90;;
64903;SDS011;51401;48.882;12.598;2022-08-14T02:16:29;9.10;;;7.72;;
64903;SDS011;51401;48.882;12.598;2022-08-14T02:18:59;11.00;;;8.50;;
64903;SDS011;51401;48.882;12.598;2022-08-14T02:21:28;8.13;;;7.32;;
64903;SDS011;51401;48.882;12.598;2022-08-14T02:23:57;11.43;;;8.18;;
64903;SDS011;51401;48.882;12.598;2022-08-14T02:26:24;9.57;;;8.57;;
64903;SDS011;51401;48.882;12.598;2022-08-14T02:28:53;8.57;;;7.78;;
64903;SDS011;51401;48.882;12.598;2022-08-14T02:31:24;10.48;;;8.60;;
64903;SDS011;51401;48.882;12.598;2022-08-14T02:33:53;10.23;;;8.52;;
64903;SDS011;51401;48.882;12.598;2022-08-14T02:36:19;9.93;;;8.50;;
64903;SDS011;51401;48.882;12.598;2022-08-14T02:38:44;9.82;;;8.55;;
64903;SDS011;51401;48.882;12.598;2022-08-14T02:41:10;9.95;;;8.07;;
64903;SDS011;51401;48.882;12.598;2022-08-14T02:43:37;8.82;;;7.93;;
64903;SDS011;51401;48.882;12.598;2022-08-14T02:46:04;8.30;;;7.43;;
64903;SDS011;51401;48.882;12.598;2022-08-14T02:48:32;10.15;;;7.85;;
64903;SDS011;51401;48.882;12.598;2022-08-14T02:51:01;9.20;;;8.25;;
64903;SDS011;51401;48.882;12.598;2022-08-14T02:53:29;8.48;;;7.57;;
64903;SDS011;51401;48.882;12.598;2022-08-14T02:55:55;8.88;;;7.97;;
64903;SDS011;51401;48.882;12.598;2022-08-14T02:58:21;8.38;;;7.47;;
64903;SDS011;51401;48.882;12.598;2022-08-14T03:00:47;9.90;;;8.10;;
64903;SDS011;51401;48.882;12.598;2022-08-14T03:03:13;9.10;;;8.15;;
64903;SDS011;51401;48.882;12.598;2022-08-14T03:05:40;10.43;;;8.63;;
64903;SDS011;51401;48.882;12.598;2022-08-14T03:08:07;10.45;;;8.07;;
64903;SDS011;51401;48.882;12.598;2022-08-14T03:10:34;8.52;;;7.63;;
64903;SDS011;51401;48.882;12.598;2022-08-14T03:13:00;9.18;;;8.13;;
64903;SDS011;51401;48.882;12.598;2022-08-14T03:15:28;9.43;;;8.43;;
64903;SDS011;51401;48.882;12.598;2022-08-14T03:17:54;13.30;;;9.38;;
64903;SDS011;51401;48.882;12.598;2022-08-14T03:20:20;10.35;;;9.02;;
64903;SDS011;51401;48.882;12.598;2022-08-14T03:22:45;10.05;;;8.85;;
64903;SDS011;51401;48.882;12.598;2022-08-14T03:25:10;9.20;;;7.93;;
64903;SDS011;51401;48.882;12.598;2022-08-14T03:27:36;9.30;;;8.23;;
64903;SDS011;51401;48.882;12.598;2022-08-14T03:30:02;9.52;;;8.13;;
64903;SDS011;51401;48.882;12.598;2022-08-14T03:32:28;9.30;;;8.20;;
64903;SDS011;51401;48.882;12.598;2022-08-14T03:34:57;9.77;;;8.63;;
64903;SDS011;51401;48.882;12.598;2022-08-14T03:37:23;8.88;;;7.53;;
64903;SDS011;51401;48.882;12.598;2022-08-14T03:39:51;10.60;;;8.65;;
64903;SDS011;51401;48.882;12.598;2022-08-14T03:42:16;10.20;;;8.63;;
64903;SDS011;51401;48.882;12.598;2022-08-14T03:44:42;9.60;;;8.60;;
64903;SDS011;51401;48.882;12.598;2022-08-14T03:47:08;11.48;;;9.27;;
64903;SDS011;51401;48.882;12.598;2022-08-14T03:49:33;11.52;;;9.32;;
64903;SDS011;51401;48.882;12.598;2022-08-14T03:51:59;10.05;;;9.00;;
64903;SDS011;51401;48.882;12.598;2022-08-14T03:54:34;11.55;;;8.90;;
64903;SDS011;51401;48.882;12.598;2022-08-14T03:56:59;9.77;;;8.52;;
64903;SDS011;51401;48.882;12.598;2022-08-14T03:59:25;9.30;;;7.72;;
64903;SDS011;51401;48.882;12.598;2022-08-14T04:01:51;9.35;;;8.23;;
64903;SDS011;51401;48.882;12.598;2022-08-14T04:04:16;10.32;;;8.23;;
64903;SDS011;51401;48.882;12.598;2022-08-14T04:06:42;10.40;;;8.00;;
64903;SDS011;51401;48.882;12.598;2022-08-14T04:09:07;9.57;;;8.57;;
64903;SDS011;51401;48.882;12.598;2022-08-14T04:11:36;11.52;;;8.35;;
64903;SDS011;51401;48.882;12.598;2022-08-14T04:14:02;9.35;;;7.85;;
64903;SDS011;51401;48.882;12.598;2022-08-14T04:16:29;9.50;;;7.85;;
64903;SDS011;51401;48.882;12.598;2022-08-14T04:18:55;9.40;;;8.15;;
64903;SDS011;51401;48.882;12.598;2022-08-14T04:21:23;9.57;;;8.55;;
64903;SDS011;51401;48.882;12.598;2022-08-14T04:23:52;9.75;;;8.75;;
64903;SDS011;51401;48.882;12.598;2022-08-14T04:26:19;9.85;;;8.30;;
64903;SDS011;51401;48.882;12.598;2022-08-14T04:28:47;10.90;;;9.15;;
64903;SDS011;51401;48.882;12.598;2022-08-14T04:31:14;11.05;;;8.55;;
64903;SDS011;51401;48.882;12.598;2022-08-14T04:33:40;9.65;;;8.55;;
64903;SDS011;51401;48.882;12.598;2022-08-14T04:36:06;11.13;;;8.93;;
64903;SDS011;51401;48.882;12.598;2022-08-14T04:38:32;9.50;;;8.20;;
64903;SDS011;51401;48.882;12.598;2022-08-14T04:41:16;9.82;;;7.88;;
64903;SDS011;51401;48.882;12.598;2022-08-14T04:43:59;9.80;;;8.40;;
64903;SDS011;51401;48.882;12.598;2022-08-14T04:46:25;9.40;;;8.50;;
64903;SDS011;51401;48.882;12.598;2022-08-14T04:48:53;11.55;;;8.95;;
64903;SDS011;51401;48.882;12.598;2022-08-14T04:51:19;10.02;;;8.50;;
64903;SDS011;51401;48.882;12.598;2022-08-14T04:53:49;9.90;;;8.90;;
64903;SDS011;51401;48.882;12.598;2022-08-14T04:56:16;12.02;;;9.40;;
64903;SDS011;51401;48.882;12.598;2022-08-14T04:58:47;10.23;;;9.20;;
64903;SDS011;51401;48.882;12.598;2022-08-14T05:01:19;10.25;;;9.20;;
64903;SDS011;51401;48.882;12.598;2022-08-14T05:03:45;11.07;;;8.52;;
64903;SDS011;51401;48.882;12.598;2022-08-14T05:06:11;9.88;;;8.88;;
64903;SDS011;51401;48.882;12.598;2022-08-14T05:08:36;9.75;;;8.75;;
64903;SDS011;51401;48.882;12.598;2022-08-14T05:11:03;9.52;;;8.63;;
64903;SDS011;51401;48.882;12.598;2022-08-14T05:13:30;9.40;;;8.50;;
64903;SDS011;51401;48.882;12.598;2022-08-14T05:15:58;10.00;;;8.73;;
64903;SDS011;51401;48.882;12.598;2022-08-14T05:18:25;9.40;;;8.40;;
64903;SDS011;51401;48.882;12.598;2022-08-14T05:20:56;9.70;;;8.75;;
64903;SDS011;51401;48.882;12.598;2022-08-14T05:23:23;10.20;;;8.98;;
64903;SDS011;51401;48.882;12.598;2022-08-14T05:25:51;9.43;;;8.45;;
64903;SDS011;51401;48.882;12.598;2022-08-14T05:28:20;9.90;;;8.98;;
64903;SDS011;51401;48.882;12.598;2022-08-14T05:33:16;9.93;;;8.93;;
64903;SDS011;51401;48.882;12.598;2022-08-14T05:35:42;11.25;;;10.13;;
64903;SDS011;51401;48.882;12.598;2022-08-14T05:38:09;10.68;;;9.60;;
64903;SDS011;51401;48.882;12.598;2022-08-14T05:40:38;11.07;;;9.98;;
64903;SDS011;51401;48.882;12.598;2022-08-14T05:43:04;10.43;;;9.43;;
64903;SDS011;51401;48.882;12.598;2022-08-14T05:45:29;12.88;;;10.50;;
64903;SDS011;51401;48.882;12.598;2022-08-14T05:47:55;12.00;;;10.70;;
64903;SDS011;51401;48.882;12.598;2022-08-14T05:50:20;12.88;;;10.75;;
64903;SDS011;51401;48.882;12.598;2022-08-14T05:52:46;12.43;;;11.13;;
64903;SDS011;51401;48.882;12.598;2022-08-14T05:55:13;11.18;;;9.50;;
64903;SDS011;51401;48.882;12.598;2022-08-14T06:00:26;12.23;;;10.45;;
64903;SDS011;51401;48.882;12.598;2022-08-14T06:02:54;11.05;;;9.68;;
64903;SDS011;51401;48.882;12.598;2022-08-14T06:05:22;11.60;;;10.38;;
64903;SDS011;51401;48.882;12.598;2022-08-14T06:07:48;12.73;;;10.15;;
64903;SDS011;51401;48.882;12.598;2022-08-14T06:10:13;11.37;;;10.10;;
64903;SDS011;51401;48.882;12.598;2022-08-14T06:12:38;12.65;;;11.10;;
64903;SDS011;51401;48.882;12.598;2022-08-14T06:15:05;12.05;;;10.75;;
64903;SDS011;51401;48.882;12.598;2022-08-14T06:17:41;11.60;;;10.35;;
64903;SDS011;51401;48.882;12.598;2022-08-14T06:20:07;11.40;;;10.05;;
64903;SDS011;51401;48.882;12.598;2022-08-14T06:22:33;11.50;;;10.40;;
64903;SDS011;51401;48.882;12.598;2022-08-14T06:24:58;12.40;;;11.13;;
64903;SDS011;51401;48.882;12.598;2022-08-14T06:27:24;13.02;;;11.68;;
64903;SDS011;51401;48.882;12.598;2022-08-14T06:29:49;12.13;;;10.93;;
64903;SDS011;51401;48.882;12.598;2022-08-14T06:32:14;12.10;;;10.60;;
64903;SDS011;51401;48.882;12.598;2022-08-14T06:34:40;10.73;;;9.68;;
64903;SDS011;51401;48.882;12.598;2022-08-14T06:37:05;11.43;;;10.32;;
64903;SDS011;51401;48.882;12.598;2022-08-14T06:39:30;10.77;;;9.67;;
64903;SDS011;51401;48.882;12.598;2022-08-14T06:41:58;10.82;;;9.73;;
64903;SDS011;51401;48.882;12.598;2022-08-14T06:44:23;11.80;;;10.60;;
64903;SDS011;51401;48.882;12.598;2022-08-14T06:46:48;11.57;;;10.47;;
64903;SDS011;51401;48.882;12.598;2022-08-14T06:49:14;11.80;;;10.60;;
64903;SDS011;51401;48.882;12.598;2022-08-14T06:51:39;11.63;;;10.43;;
64903;SDS011;51401;48.882;12.598;2022-08-14T06:54:10;10.68;;;9.57;;
64903;SDS011;51401;48.882;12.598;2022-08-14T06:56:36;10.20;;;9.20;;
64903;SDS011;51401;48.882;12.598;2022-08-14T06:59:02;9.80;;;8.87;;
64903;SDS011;51401;48.882;12.598;2022-08-14T07:01:27;9.60;;;8.70;;
64903;SDS011;51401;48.882;12.598;2022-08-14T07:04:11;9.80;;;8.95;;
64903;SDS011;51401;48.882;12.598;2022-08-14T07:06:55;10.30;;;9.30;;
64903;SDS011;51401;48.882;12.598;2022-08-14T07:09:20;9.02;;;8.23;;
64903;SDS011;51401;48.882;12.598;2022-08-14T07:11:45;9.67;;;8.77;;
64903;SDS011;51401;48.882;12.598;2022-08-14T07:14:11;10.27;;;9.07;;
64903;SDS011;51401;48.882;12.598;2022-08-14T07:16:36;8.73;;;7.93;;
64903;SDS011;51401;48.882;12.598;2022-08-14T07:19:01;9.07;;;8.18;;
64903;SDS011;51401;48.882;12.598;2022-08-14T07:21:27;9.07;;;8.27;;
64903;SDS011;51401;48.882;12.598;2022-08-14T07:23:52;8.07;;;7.27;;
64903;SDS011;51401;48.882;12.598;2022-08-14T07:26:17;8.38;;;7.60;;
64903;SDS011;51401;48.882;12.598;2022-08-14T07:28:43;8.20;;;7.47;;
64903;SDS011;51401;48.882;12.598;2022-08-14T07:31:09;7.68;;;6.93;;
64903;SDS011;51401;48.882;12.598;2022-08-14T07:33:37;8.20;;;7.50;;
64903;SDS011;51401;48.882;12.598;2022-08-14T07:36:12;7.28;;;6.57;;
64903;SDS011;51401;48.882;12.598;2022-08-14T07:38:39;7.30;;;6.70;;
64903;SDS011;51401;48.882;12.598;2022-08-14T07:41:05;8.20;;;7.45;;
64903;SDS011;51401;48.882;12.598;2022-08-14T07:43:33;7.22;;;6.63;;
64903;SDS011;51401;48.882;12.598;2022-08-14T07:45:59;7.13;;;6.53;;
64903;SDS011;51401;48.882;12.598;2022-08-14T07:48:24;7.30;;;6.60;;
64903;SDS011;51401;48.882;12.598;2022-08-14T07:50:49;7.50;;;6.55;;
64903;SDS011;51401;48.882;12.598;2022-08-14T07:53:16;6.72;;;6.13;;
64903;SDS011;51401;48.882;12.598;2022-08-14T07:55:42;7.20;;;6.50;;
64903;SDS011;51401;48.882;12.598;2022-08-14T07:58:08;6.97;;;6.38;;
64903;SDS011;51401;48.882;12.598;2022-08-14T08:00:34;7.10;;;6.22;;
64903;SDS011;51401;48.882;12.598;2022-08-14T08:03:00;7.15;;;6.40;;
64903;SDS011;51401;48.882;12.598;2022-08-14T08:05:27;6.78;;;6.18;;
64903;SDS011;51401;48.882;12.598;2022-08-14T08:07:52;6.50;;;5.97;;
64903;SDS011;51401;48.882;12.598;2022-08-14T08:10:19;6.65;;;5.88;;
64903;SDS011;51401;48.882;12.598;2022-08-14T08:12:59;5.93;;;5.35;;
64903;SDS011;51401;48.882;12.598;2022-08-14T08:15:29;6.43;;;5.82;;
64903;SDS011;51401;48.882;12.598;2022-08-14T08:17:56;5.82;;;5.20;;
64903;SDS011;51401;48.882;12.598;2022-08-14T08:20:23;5.53;;;5.13;;
64903;SDS011;51401;48.882;12.598;2022-08-14T08:22:50;5.05;;;4.65;;
64903;SDS011;51401;48.882;12.598;2022-08-14T08:25:16;5.57;;;5.10;;
64903;SDS011;51401;48.882;12.598;2022-08-14T08:27:53;5.13;;;4.72;;
64903;SDS011;51401;48.882;12.598;2022-08-14T08:30:21;5.50;;;5.00;;
64903;SDS011;51401;48.882;12.598;2022-08-14T08:32:46;6.75;;;4.80;;
64903;SDS011;51401;48.882;12.598;2022-08-14T08:35:18;5.07;;;4.68;;
64903;SDS011;51401;48.882;12.598;2022-08-14T08:37:46;4.82;;;4.43;;
64903;SDS011;51401;48.882;12.598;2022-08-14T08:40:26;5.20;;;4.70;;
64903;SDS011;51401;48.882;12.598;2022-08-14T08:42:53;5.15;;;4.75;;
64903;SDS011;51401;48.882;12.598;2022-08-14T08:45:19;5.38;;;4.88;;
64903;SDS011;51401;48.882;12.598;2022-08-14T08:47:46;6.65;;;4.70;;
64903;SDS011;51401;48.882;12.598;2022-08-14T08:53:03;4.90;;;4.50;;
64903;SDS011;51401;48.882;12.598;2022-08-14T08:55:32;4.68;;;4.28;;
64903;SDS011;51401;48.882;12.598;2022-08-14T08:58:00;4.85;;;4.45;;
64903;SDS011;51401;48.882;12.598;2022-08-14T09:00:28;5.40;;;4.90;;
64903;SDS011;51401;48.882;12.598;2022-08-14T09:02:58;5.75;;;5.25;;
64903;SDS011;51401;48.882;12.598;2022-08-14T09:05:27;4.95;;;4.47;;
64903;SDS011;51401;48.882;12.598;2022-08-14T09:07:52;5.05;;;4.55;;
64903;SDS011;51401;48.882;12.598;2022-08-14T09:10:18;4.95;;;4.55;;
64903;SDS011;51401;48.882;12.598;2022-08-14T09:12:43;5.20;;;4.70;;
64903;SDS011;51401;48.882;12.598;2022-08-14T09:15:09;6.05;;;5.32;;
64903;SDS011;51401;48.882;12.598;2022-08-14T09:17:35;4.88;;;4.47;;
64903;SDS011;51401;48.882;12.598;2022-08-14T09:20:01;5.20;;;4.80;;
64903;SDS011;51401;48.882;12.598;2022-08-14T09:22:27;5.00;;;4.60;;
64903;SDS011;51401;48.882;12.598;2022-08-14T09:24:53;4.63;;;4.22;;
64903;SDS011;51401;48.882;12.598;2022-08-14T09:27:19;5.10;;;4.60;;
64903;SDS011;51401;48.882;12.598;2022-08-14T09:29:45;5.75;;;4.65;;
64903;SDS011;51401;48.882;12.598;2022-08-14T09:32:11;7.03;;;4.40;;
64903;SDS011;51401;48.882;12.598;2022-08-14T09:34:47;5.82;;;5.22;;
64903;SDS011;51401;48.882;12.598;2022-08-14T09:39:58;4.80;;;4.40;;
64903;SDS011;51401;48.882;12.598;2022-08-14T09:45:17;4.80;;;4.40;;
64903;SDS011;51401;48.882;12.598;2022-08-14T09:47:47;4.93;;;4.50;;
64903;SDS011;51401;48.882;12.598;2022-08-14T09:50:31;4.45;;;4.07;;
64903;SDS011;51401;48.882;12.598;2022-08-14T09:53:07;5.10;;;4.60;;
64903;SDS011;51401;48.882;12.598;2022-08-14T09:55:34;4.82;;;4.43;;
64903;SDS011;51401;48.882;12.598;2022-08-14T09:58:19;6.07;;;4.88;;
64903;SDS011;51401;48.882;12.598;2022-08-14T10:00:45;5.55;;;4.70;;
64903;SDS011;51401;48.882;12.598;2022-08-14T10:03:24;6.32;;;5.20;;
64903;SDS011;51401;48.882;12.598;2022-08-14T10:06:06;5.57;;;4.70;;
64903;SDS011;51401;48.882;12.598;2022-08-14T10:08:40;5.15;;;4.65;;
64903;SDS011;51401;48.882;12.598;2022-08-14T10:11:20;5.85;;;5.03;;
64903;SDS011;51401;48.882;12.598;2022-08-14T10:13:48;5.28;;;4.78;;
64903;SDS011;51401;48.882;12.598;2022-08-14T10:16:21;4.88;;;4.47;;
64903;SDS011;51401;48.882;12.598;2022-08-14T10:21:30;5.35;;;4.85;;
64903;SDS011;51401;48.882;12.598;2022-08-14T10:23:55;5.32;;;4.82;;
64903;SDS011;51401;48.882;12.598;2022-08-14T10:26:21;5.38;;;4.88;;
64903;SDS011;51401;48.882;12.598;2022-08-14T10:28:47;5.70;;;5.10;;
64903;SDS011;51401;48.882;12.598;2022-08-14T10:31:28;5.40;;;4.90;;
64903;SDS011;51401;48.882;12.598;2022-08-14T10:33:56;5.07;;;4.57;;
64903;SDS011;51401;48.882;12.598;2022-08-14T10:36:34;5.50;;;5.00;;
64903;SDS011;51401;48.882;12.598;2022-08-14T10:39:06;6.25;;;5.05;;
64903;SDS011;51401;48.882;12.598;2022-08-14T10:41:40;5.43;;;4.93;;
64903;SDS011;51401;48.882;12.598;2022-08-14T10:44:08;5.45;;;4.65;;
64903;SDS011;51401;48.882;12.598;2022-08-14T10:46:41;5.18;;;4.68;;
64903;SDS011;51401;48.882;12.598;2022-08-14T10:49:29;5.40;;;4.90;;
64903;SDS011;51401;48.882;12.598;2022-08-14T10:54:31;5.72;;;4.90;;
64903;SDS011;51401;48.882;12.598;2022-08-14T10:59:56;4.93;;;4.43;;
64903;SDS011;51401;48.882;12.598;2022-08-14T11:02:31;5.40;;;4.90;;
64903;SDS011;51401;48.882;12.598;2022-08-14T11:04:58;5.40;;;4.93;;
64903;SDS011;51401;48.882;12.598;2022-08-14T11:07:27;5.70;;;4.50;;
64903;SDS011;51401;48.882;12.598;2022-08-14T11:09:54;5.28;;;4.78;;
64903;SDS011;51401;48.882;12.598;2022-08-14T11:12:21;5.80;;;4.95;;
64903;SDS011;51401;48.882;12.598;2022-08-14T11:14:50;5.57;;;5.07;;
64903;SDS011;51401;48.882;12.598;2022-08-14T11:17:21;5.30;;;4.80;;
64903;SDS011;51401;48.882;12.598;2022-08-14T11:19:48;5.53;;;5.03;;
64903;SDS011;51401;48.882;12.598;2022-08-14T11:22:16;4.88;;;4.47;;
64903;SDS011;51401;48.882;12.598;2022-08-14T11:24:42;5.18;;;4.72;;
64903;SDS011;51401;48.882;12.598;2022-08-14T11:27:09;5.43;;;4.93;;
64903;SDS011;51401;48.882;12.598;2022-08-14T11:29:38;5.78;;;5.28;;
64903;SDS011;51401;48.882;12.598;2022-08-14T11:32:05;5.28;;;4.78;;
64903;SDS011;51401;48.882;12.598;2022-08-14T11:34:34;5.10;;;4.60;;
64903;SDS011;51401;48.882;12.598;2022-08-14T11:37:08;5.45;;;4.95;;
64903;SDS011;51401;48.882;12.598;2022-08-14T11:39:36;5.53;;;4.93;;
64903;SDS011;51401;48.882;12.598;2022-08-14T11:42:05;5.20;;;4.70;;
64903;SDS011;51401;48.882;12.598;2022-08-14T11:44:31;6.40;;;4.57;;
64903;SDS011;51401;48.882;12.598;2022-08-14T11:46:57;5.45;;;4.93;;
64903;SDS011;51401;48.882;12.598;2022-08-14T11:49:26;5.63;;;5.13;;
64903;SDS011;51401;48.882;12.598;2022-08-14T11:51:55;5.97;;;5.30;;
64903;SDS011;51401;48.882;12.598;2022-08-14T11:54:20;5.82;;;5.05;;
64903;SDS011;51401;48.882;12.598;2022-08-14T11:56:46;6.05;;;4.93;;
64903;SDS011;51401;48.882;12.598;2022-08-14T11:59:16;5.67;;;5.17;;
64903;SDS011;51401;48.882;12.598;2022-08-14T12:01:43;5.32;;;4.88;;
64903;SDS011;51401;48.882;12.598;2022-08-14T12:04:12;6.25;;;5.55;;
64903;SDS011;51401;48.882;12.598;2022-08-14T12:06:48;5.05;;;4.53;;
64903;SDS011;51401;48.882;12.598;2022-08-14T12:09:29;5.13;;;4.63;;
64903;SDS011;51401;48.882;12.598;2022-08-14T12:11:56;5.32;;;4.82;;
64903;SDS011;51401;48.882;12.598;2022-08-14T12:14:22;5.60;;;4.97;;
64903;SDS011;51401;48.882;12.598;2022-08-14T12:17:00;5.57;;;5.07;;
64903;SDS011;51401;48.882;12.598;2022-08-14T12:19:28;5.68;;;5.18;;
64903;SDS011;51401;48.882;12.598;2022-08-14T12:21:53;5.35;;;4.78;;
64903;SDS011;51401;48.882;12.598;2022-08-14T12:24:19;5.10;;;4.60;;
64903;SDS011;51401;48.882;12.598;2022-08-14T12:26:55;5.38;;;4.88;;
64903;SDS011;51401;48.882;12.598;2022-08-14T12:29:21;5.45;;;4.95;;
64903;SDS011;51401;48.882;12.598;2022-08-14T12:31:55;5.63;;;5.13;;
64903;SDS011;51401;48.882;12.598;2022-08-14T12:34:28;5.35;;;4.95;;
64903;SDS011;51401;48.882;12.598;2022-08-14T12:37:04;6.05;;;5.32;;
64903;SDS011;51401;48.882;12.598;2022-08-14T12:39:32;5.63;;;5.13;;
64903;SDS011;51401;48.882;12.598;2022-08-14T12:41:58;6.95;;;5.13;;
64903;SDS011;51401;48.882;12.598;2022-08-14T12:44:38;5.38;;;4.88;;
64903;SDS011;51401;48.882;12.598;2022-08-14T12:47:11;5.60;;;5.10;;
64903;SDS011;51401;48.882;12.598;2022-08-14T12:50:02;5.30;;;4.80;;
64903;SDS011;51401;48.882;12.598;2022-08-14T12:54:58;5.55;;;4.68;;
64903;SDS011;51401;48.882;12.598;2022-08-14T12:57:32;5.43;;;4.93;;
64903;SDS011;51401;48.882;12.598;2022-08-14T13:00:08;5.72;;;5.22;;
64903;SDS011;51401;48.882;12.598;2022-08-14T13:02:40;5.78;;;5.28;;
64903;SDS011;51401;48.882;12.598;2022-08-14T13:05:06;5.55;;;5.05;;
64903;SDS011;51401;48.882;12.598;2022-08-14T13:07:33;5.50;;;5.00;;
64903;SDS011;51401;48.882;12.598;2022-08-14T13:09:59;5.80;;;5.20;;
64903;SDS011;51401;48.882;12.598;2022-08-14T13:12:25;5.57;;;5.07;;
64903;SDS011;51401;48.882;12.598;2022-08-14T13:14:55;5.30;;;4.80;;
64903;SDS011;51401;48.882;12.598;2022-08-14T13:17:23;5.15;;;4.70;;
64903;SDS011;51401;48.882;12.598;2022-08-14T13:19:51;5.90;;;5.40;;
64903;SDS011;51401;48.882;12.598;2022-08-14T13:22:18;5.82;;;5.32;;
64903;SDS011;51401;48.882;12.598;2022-08-14T13:24:50;6.32;;;5.15;;
64903;SDS011;51401;48.882;12.598;2022-08-14T13:27:16;6.13;;;5.53;;
64903;SDS011;51401;48.882;12.598;2022-08-14T13:32:12;5.85;;;5.30;;
64903;SDS011;51401;48.882;12.598;2022-08-14T13:34:38;6.13;;;5.53;;
64903;SDS011;51401;48.882;12.598;2022-08-14T13:37:05;5.70;;;5.20;;
64903;SDS011;51401;48.882;12.598;2022-08-14T13:39:31;6.50;;;5.78;;
64903;SDS011;51401;48.882;12.598;2022-08-14T13:41:57;6.10;;;5.22;;
64903;SDS011;51401;48.882;12.598;2022-08-14T13:44:25;5.55;;;5.05;;
64903;SDS011;51401;48.882;12.598;2022-08-14T13:46:51;5.88;;;5.07;;
64903;SDS011;51401;48.882;12.598;2022-08-14T13:49:16;5.75;;;5.25;;
64903;SDS011;51401;48.882;12.598;2022-08-14T13:51:45;6.82;;;5.35;;
64903;SDS011;51401;48.882;12.598;2022-08-14T13:54:15;5.67;;;5.10;;
64903;SDS011;51401;48.882;12.598;2022-08-14T13:56:47;7.20;;;5.25;;
64903;SDS011;51401;48.882;12.598;2022-08-14T13:59:13;5.45;;;4.95;;
64903;SDS011;51401;48.882;12.598;2022-08-14T14:01:39;6.18;;;5.65;;
64903;SDS011;51401;48.882;12.598;2022-08-14T14:04:07;5.75;;;5.25;;
64903;SDS011;51401;48.882;12.598;2022-08-14T14:06:38;6.10;;;5.55;;
64903;SDS011;51401;48.882;12.598;2022-08-14T14:09:04;7.38;;;5.55;;
64903;SDS011;51401;48.882;12.598;2022-08-14T14:11:33;6.05;;;5.45;;
64903;SDS011;51401;48.882;12.598;2022-08-14T14:13:59;6.38;;;5.50;;
64903;SDS011;51401;48.882;12.598;2022-08-14T14:16:25;6.68;;;5.32;;
64903;SDS011;51401;48.882;12.598;2022-08-14T14:18:51;7.78;;;4.93;;
64903;SDS011;51401;48.882;12.598;2022-08-14T14:21:20;5.68;;;4.75;;
64903;SDS011;51401;48.882;12.598;2022-08-14T14:23:48;5.25;;;4.75;;
64903;SDS011;51401;48.882;12.598;2022-08-14T14:26:16;5.70;;;4.78;;
64903;SDS011;51401;48.882;12.598;2022-08-14T14:28:45;4.78;;;4.38;;
64903;SDS011;51401;48.882;12.598;2022-08-14T14:31:19;5.18;;;4.68;;
64903;SDS011;51401;48.882;12.598;2022-08-14T14:33:48;5.07;;;4.25;;
64903;SDS011;51401;48.882;12.598;2022-08-14T14:36:17;4.80;;;4.28;;
64903;SDS011;51401;48.882;12.598;2022-08-14T14:38:51;5.38;;;4.07;;
64903;SDS011;51401;48.882;12.598;2022-08-14T14:41:36;5.05;;;4.18;;
64903;SDS011;51401;48.882;12.598;2022-08-14T14:44:03;5.72;;;4.43;;
64903;SDS011;51401;48.882;12.598;2022-08-14T14:46:31;4.68;;;4.00;;
64903;SDS011;51401;48.882;12.598;2022-08-14T14:49:00;5.38;;;4.47;;
64903;SDS011;51401;48.882;12.598;2022-08-14T14:51:26;4.57;;;4.15;;
64903;SDS011;51401;48.882;12.598;2022-08-14T14:53:52;4.68;;;4.18;;
64903;SDS011;51401;48.882;12.598;2022-08-14T14:56:18;5.00;;;4.50;;
64903;SDS011;51401;48.882;12.598;2022-08-14T14:58:43;4.60;;;4.15;;
64903;SDS011;51401;48.882;12.598;2022-08-14T15:01:10;5.45;;;4.28;;
64903;SDS011;51401;48.882;12.598;2022-08-14T15:03:39;4.68;;;3.85;;
64903;SDS011;51401;48.882;12.598;2022-08-14T15:06:10;5.00;;;4.30;;